メインページ
METAR-TAF:

METAR-TAF

空港 :

岡山空港

岡山, 日本

緯度: 34-45N, 経度: 133-51E, 海抜: 241m

現時点の気象観測

当レポートは39分前の22:00(UTC)に作成
の風 4kt、北西から東/北東の間で変化する
気温 6°C
湿度 93%
気圧 1018 hPa
視程: 7000m
高度100ft以下の雲はほとんどない
高度3500ftの千切れ雲あり
弱いにわか雨, 散在霧,

METAR: RJOB 212200Z 36004KT 310V070 7000 -SHRA BCFG FEW000 BKN035 06/05 Q1018

時間: 07:39 (22:39 UTC)

予報

当レポートは5時間34分前の17:05(UTC)に作成
予報は21日の 18時(UTC)から 23日の 00時(UTC)まで有効
の風 5kt
視程: 8000m
高度500ftの雲はほとんどない
高度1000ftの雲は散在している
高度2000ftの千切れ雲あり
弱いにわか雨
21日の 18時(UTC)から 22日の 00時(UTC)まで一時的に
視程: 4000m
高度100ft以下の雲はほとんどない
高度500ftの雲は散在している
高度800ftの千切れ雲あり
弱いにわか雨, 靄, 散在霧,

TAF: RJOB 211705Z 2118/2300 01005KT 8000 -SHRA FEW005 SCT010 BKN020 TEMPO 2118/2200 4000 -SHRA BR BCFG FEW000 SCT005 BKN008

4,000以上の空港の気象観測と天気予報(METAR報とTAF報)

利用可能な観測所は地図上に黄色い丸と赤い丸で示す。

丸の上にカーソルを重ねると観測所名を参照できる。

次にクリックすると気象観測と天気予報を参照できる。

マップの切り替え:黒色「×」印の緑ボタンをクリックして拡大、「-」印の緑ボタンをクリックして縮小、緑色の三角印をクリックして隣りの地図に切り替え


METAR-TAF: